Time;durP1;ratioP1;P1;durP2;ratioP2;P2;SDS_P1;SDS_P2;PMS_P1;PMS_P2;Temp;Humidity;BMP_temperature;BMP_pressure;BME280_temperature;BME280_humidity;BME280_pressure;Samples;Min_cycle;Max_cycle;Signal;HPM_P1;HPM_P2
2023/07/30 00:02:04;;;;;;;14.30;8.07;;;;;;;27.14;82.36;99721.94;5075491;28;20505;-58
2023/07/30 00:04:36;;;;;;;14.27;7.43;;;;;;;27.29;81.75;99720.53;5087290;28;20039;-58
2023/07/30 00:07:07;;;;;;;14.50;8.20;;;;;;;27.53;81.71;99718.19;5076379;28;20055;-58
2023/07/30 00:09:37;;;;;;;12.07;7.50;;;;;;;27.76;80.60;99712.44;5087169;28;20138;-59
2023/07/30 00:12:10;;;;;;;17.30;7.60;;;;;;;27.95;80.42;99706.97;5073404;28;20048;-59
2023/07/30 00:14:40;;;;;;;14.93;8.50;;;;;;;28.30;78.90;99721.44;5086827;28;20043;-59
2023/07/30 00:17:11;;;;;;;9.77;7.27;;;;;;;28.57;77.90;99711.66;5075516;28;20056;-59
2023/07/30 00:19:43;;;;;;;11.63;6.77;;;;;;;28.65;75.17;99713.56;5087021;28;20059;-57
2023/07/30 00:22:13;;;;;;;13.50;7.47;;;;;;;28.78;76.19;99720.25;5072059;28;20500;-57
2023/07/30 00:24:44;;;;;;;10.47;7.27;;;;;;;28.82;74.37;99704.63;5082879;28;20056;-58
2023/07/30 00:27:14;;;;;;;11.50;7.30;;;;;;;28.77;73.96;99707.78;5086936;28;20063;-58
2023/07/30 00:29:45;;;;;;;11.10;7.03;;;;;;;28.75;74.23;99688.28;5077232;28;20040;-57
2023/07/30 00:32:16;;;;;;;18.07;6.70;;;;;;;28.90;74.17;99690.41;5080071;28;20055;-56
2023/07/30 00:34:48;;;;;;;12.47;7.07;;;;;;;28.96;73.86;99684.41;5077041;28;20051;-57
2023/07/30 00:37:19;;;;;;;10.23;7.60;;;;;;;29.08;73.51;99683.19;5087070;28;20054;-57
2023/07/30 00:39:49;;;;;;;9.67;6.73;;;;;;;29.23;72.97;99686.97;5076046;28;20373;-58
2023/07/30 00:42:20;;;;;;;9.73;6.93;;;;;;;29.36;72.46;99691.06;5086027;28;20595;-57
2023/07/30 00:44:50;;;;;;;11.87;6.93;;;;;;;29.51;72.71;99688.63;5076308;28;20123;-58
2023/07/30 00:47:21;;;;;;;11.47;7.00;;;;;;;29.61;71.24;99690.19;5086902;28;20470;-58
2023/07/30 00:49:53;;;;;;;10.23;6.70;;;;;;;29.74;70.31;99678.16;5076401;28;20568;-57
2023/07/30 00:52:27;;;;;;;14.33;6.77;;;;;;;29.81;70.26;99679.19;5077269;28;20081;-58
2023/07/30 00:55:00;;;;;;;11.07;7.23;;;;;;;29.87;69.60;99689.28;5076594;28;20040;-57
2023/07/30 00:57:32;;;;;;;15.10;6.30;;;;;;;29.93;70.12;99680.56;5070101;28;20055;-58
2023/07/30 01:00:05;;;;;;;8.80;6.93;;;;;;;29.99;70.09;99676.38;5070118;28;20535;-56
2023/07/30 01:02:36;;;;;;;13.30;7.00;;;;;;;30.13;68.59;99672.16;5084142;28;20381;-58
2023/07/30 01:05:09;;;;;;;11.60;7.03;;;;;;;30.13;67.91;99669.47;5075731;28;20047;-57
2023/07/30 01:07:40;;;;;;;8.63;6.70;;;;;;;29.95;68.32;99648.91;5086760;28;20470;-58
2023/07/30 01:10:11;;;;;;;12.67;6.37;;;;;;;30.10;68.26;99667.94;5075810;28;20071;-57
2023/07/30 01:12:44;;;;;;;13.87;7.00;;;;;;;30.25;67.69;99643.94;5083503;28;20039;-56
2023/07/30 01:15:14;;;;;;;9.37;6.97;;;;;;;30.49;67.17;99652.03;5075105;28;20501;-57
2023/07/30 01:17:46;;;;;;;12.70;6.73;;;;;;;30.40;66.20;99636.84;5075026;28;20085;-57
2023/07/30 01:20:18;;;;;;;14.43;7.83;;;;;;;30.28;66.98;99638.22;5084419;28;20066;-57
2023/07/30 01:22:50;;;;;;;9.13;6.43;;;;;;;30.06;67.74;99640.50;5070649;28;20051;-57
2023/07/30 01:25:25;;;;;;;10.67;6.17;;;;;;;29.74;67.84;99637.75;5078240;28;20067;-58
2023/07/30 01:28:00;;;;;;;11.90;7.27;;;;;;;29.54;69.56;99646.06;5054565;28;20040;-58
2023/07/30 01:30:34;;;;;;;12.93;7.07;;;;;;;29.39;69.78;99642.31;5067142;28;20409;-58
2023/07/30 01:33:06;;;;;;;11.33;7.27;;;;;;;29.30;70.41;99643.25;5073588;28;20039;-57
2023/07/30 01:35:38;;;;;;;15.93;8.30;;;;;;;29.10;71.18;99638.13;5085188;28;20097;-59
2023/07/30 01:38:11;;;;;;;12.43;7.23;;;;;;;28.96;72.29;99646.75;5074278;28;20455;-58
2023/07/30 01:40:42;;;;;;;11.50;7.47;;;;;;;28.89;73.07;99640.31;5082496;28;20052;-58
2023/07/30 01:43:12;;;;;;;14.83;7.37;;;;;;;28.81;73.28;99633.88;5068571;28;20058;-58
2023/07/30 01:45:43;;;;;;;11.47;7.63;;;;;;;28.77;73.17;99627.13;5079319;28;20139;-59
2023/07/30 01:48:14;;;;;;;12.80;7.43;;;;;;;28.67;73.61;99620.19;5058515;28;20036;-58
2023/07/30 01:50:47;;;;;;;14.77;7.97;;;;;;;28.57;73.93;99609.53;5069780;28;20040;-58
2023/07/30 01:53:18;;;;;;;18.40;7.33;;;;;;;28.35;74.60;99595.53;5074029;28;20052;-56
2023/07/30 01:55:51;;;;;;;11.27;7.40;;;;;;;28.51;74.59;99645.09;5063954;28;20046;-57
2023/07/30 01:58:21;;;;;;;12.70;7.33;;;;;;;28.38;74.79;99649.00;5074446;28;20063;-56
2023/07/30 02:00:55;;;;;;;11.80;7.23;;;;;;;28.17;75.58;99637.72;5062730;28;20278;-56
2023/07/30 02:03:25;;;;;;;11.70;7.60;;;;;;;28.03;76.87;99643.59;5074035;28;20079;-56
2023/07/30 02:05:56;;;;;;;13.60;7.23;;;;;;;27.87;77.68;99645.13;5065167;28;20047;-56
2023/07/30 02:08:28;;;;;;;15.20;11.00;;;;;;;27.64;78.90;99649.22;5073515;28;20516;-58
2023/07/30 02:10:59;;;;;;;34.67;21.13;;;;;;;27.28;80.54;99617.75;5064021;28;20386;-58
2023/07/30 02:13:29;;;;;;;40.03;25.30;;;;;;;27.37;81.27;99632.09;5073245;28;20381;-56
2023/07/30 02:15:59;;;;;;;16.50;9.53;;;;;;;27.30;82.06;99636.38;5073036;28;20146;-57
2023/07/30 02:18:40;;;;;;;29.73;22.10;;;;;;;27.21;82.28;99637.25;5077912;28;20467;-56
2023/07/30 02:21:11;;;;;;;49.27;34.30;;;;;;;27.13;82.63;99637.09;5053733;28;20465;-58
2023/07/30 02:23:43;;;;;;;19.37;11.30;;;;;;;27.02;83.55;99617.53;5068705;28;20083;-58
2023/07/30 02:26:14;;;;;;;19.90;10.53;;;;;;;26.97;84.32;99614.44;5060552;28;20066;-59
2023/07/30 02:28:44;;;;;;;16.00;8.90;;;;;;;26.94;85.02;99617.44;5064579;28;20050;-58
2023/07/30 02:31:15;;;;;;;15.50;11.63;;;;;;;26.98;85.85;99626.84;5069872;28;20055;-58
2023/07/30 02:33:46;;;;;;;20.63;10.43;;;;;;;27.00;85.92;99622.19;5059338;28;20056;-58
2023/07/30 02:36:16;;;;;;;17.87;8.20;;;;;;;27.04;86.35;99626.28;5070032;28;20439;-58
2023/07/30 02:38:48;;;;;;;16.80;9.40;;;;;;;27.07;86.22;99615.25;5059236;28;20048;-60
2023/07/30 02:41:20;;;;;;;16.43;8.30;;;;;;;27.06;85.01;99613.56;5069341;28;20055;-56
2023/07/30 02:43:58;;;;;;;22.97;9.97;;;;;;;27.16;86.05;99607.31;5049835;28;20113;-57
2023/07/30 02:46:34;;;;;;;14.47;9.63;;;;;;;27.31;85.06;99606.72;5069770;28;20494;-58
2023/07/30 02:49:08;;;;;;;22.13;11.80;;;;;;;27.33;83.40;99625.34;5059345;28;20056;-59
2023/07/30 02:51:40;;;;;;;22.10;11.17;;;;;;;27.33;82.89;99614.59;5073456;28;20043;-56
2023/07/30 02:54:14;;;;;;;14.37;8.93;;;;;;;27.32;82.79;99612.94;5063958;28;20048;-59
2023/07/30 02:56:49;;;;;;;12.83;7.70;;;;;;;27.29;82.36;99618.59;5058781;28;20032;-59
2023/07/30 02:59:22;;;;;;;16.27;8.10;;;;;;;27.25;82.40;99623.41;5069532;28;20059;-59
2023/07/30 03:01:56;;;;;;;14.60;7.93;;;;;;;27.26;82.69;99624.25;5059811;28;20048;-59
2023/07/30 03:04:28;;;;;;;12.83;7.60;;;;;;;27.18;81.97;99610.69;5069180;28;20036;-59
2023/07/30 03:07:01;;;;;;;10.23;7.30;;;;;;;27.10;82.15;99604.22;5058530;28;20059;-58
2023/07/30 03:09:36;;;;;;;17.47;8.37;;;;;;;27.06;83.23;99589.44;5069265;28;20313;-59
2023/07/30 03:12:09;;;;;;;13.53;7.40;;;;;;;27.05;83.57;99590.41;5059901;28;20044;-59
2023/07/30 03:14:41;;;;;;;13.80;7.67;;;;;;;27.06;82.92;99586.75;5069012;28;20366;-59
2023/07/30 03:17:16;;;;;;;20.90;8.17;;;;;;;27.14;84.31;99582.50;5058695;28;20134;-58
2023/07/30 03:19:49;;;;;;;13.83;8.07;;;;;;;27.25;84.08;99574.28;5058557;28;20431;-58
2023/07/30 03:22:23;;;;;;;14.07;7.30;;;;;;;27.30;83.39;99577.34;5071975;28;20433;-57
2023/07/30 03:24:57;;;;;;;12.03;7.50;;;;;;;27.04;83.58;99524.41;5059603;28;20052;-58
2023/07/30 03:27:31;;;;;;;20.17;7.90;;;;;;;27.26;83.56;99576.00;5070367;28;20085;-59
2023/07/30 03:30:04;;;;;;;13.13;7.90;;;;;;;27.26;83.96;99565.25;5058927;28;20044;-58
2023/07/30 03:32:48;;;;;;;20.93;12.30;;;;;;;27.24;83.73;99548.47;5070423;28;20044;-59
2023/07/30 03:35:27;;;;;;;66.07;41.63;;;;;;;27.40;83.90;99559.38;5036707;28;20051;-59
2023/07/30 03:37:59;;;;;;;29.00;17.53;;;;;;;27.44;83.58;99557.25;5059671;28;20153;-62
2023/07/30 03:40:48;;;;;;;35.73;21.73;;;;;;;27.53;83.63;99562.56;5059368;28;20450;-59
2023/07/30 03:43:20;;;;;;;18.10;10.40;;;;;;;27.64;84.09;99552.59;5068706;28;20363;-57
2023/07/30 03:45:53;;;;;;;20.03;7.63;;;;;;;27.70;83.93;99551.97;5057831;28;20062;-58
2023/07/30 03:48:27;;;;;;;20.90;9.90;;;;;;;27.89;83.16;99545.66;5069998;28;20367;-59
2023/07/30 03:50:59;;;;;;;13.90;8.27;;;;;;;28.11;82.36;99539.81;5058455;28;20048;-58
2023/07/30 03:53:31;;;;;;;11.97;7.43;;;;;;;28.27;82.24;99533.69;5068575;28;20106;-59
2023/07/30 03:56:07;;;;;;;17.33;7.63;;;;;;;28.40;82.59;99525.22;5058198;28;20115;-58
2023/07/30 03:58:39;;;;;;;15.43;7.80;;;;;;;28.54;79.96;99529.22;5070607;28;20321;-57
2023/07/30 04:01:12;;;;;;;14.43;6.83;;;;;;;28.68;79.15;99536.69;5063162;28;20032;-59
2023/07/30 04:03:45;;;;;;;11.87;6.47;;;;;;;28.81;78.15;99537.09;5071198;28;20086;-59
2023/07/30 04:06:19;;;;;;;9.43;6.47;;;;;;;28.98;76.50;99523.72;5072707;28;20067;-60
2023/07/30 04:08:51;;;;;;;10.47;6.93;;;;;;;29.14;75.92;99515.75;5062197;28;20050;-59
2023/07/30 04:11:25;;;;;;;12.30;6.93;;;;;;;29.30;75.78;99519.50;5073536;28;20059;-58
2023/07/30 04:13:57;;;;;;;11.07;6.07;;;;;;;29.42;73.59;99512.81;5062625;28;20054;-58
2023/07/30 04:16:31;;;;;;;11.17;6.13;;;;;;;29.44;73.73;99505.41;5072539;28;20067;-59
2023/07/30 04:19:06;;;;;;;8.57;5.83;;;;;;;29.42;71.97;99515.50;5060861;28;20057;-60
2023/07/30 04:21:39;;;;;;;9.33;5.90;;;;;;;29.47;71.05;99510.47;5073389;28;20047;-60
2023/07/30 04:24:11;;;;;;;13.60;7.33;;;;;;;29.59;71.47;99506.44;5062125;28;20055;-58
2023/07/30 04:26:47;;;;;;;17.13;7.80;;;;;;;29.79;70.80;99509.69;5071589;28;20062;-58
2023/07/30 04:29:19;;;;;;;16.33;7.23;;;;;;;29.75;69.47;99507.50;5063040;28;20132;-59
2023/07/30 04:31:53;;;;;;;17.73;7.50;;;;;;;29.54;68.61;99516.88;5062155;28;20051;-61
2023/07/30 04:34:25;;;;;;;18.47;8.10;;;;;;;29.32;68.77;99506.72;5071336;28;20059;-61
2023/07/30 04:36:58;;;;;;;12.37;7.33;;;;;;;29.04;69.49;99509.63;5062518;28;20059;-59
2023/07/30 04:39:31;;;;;;;17.40;10.57;;;;;;;28.80;71.47;99503.13;5072085;28;20056;-59
2023/07/30 04:42:07;;;;;;;16.10;7.80;;;;;;;28.66;73.03;99501.06;5061668;28;20043;-59
2023/07/30 04:44:42;;;;;;;10.83;6.97;;;;;;;28.57;74.39;99485.91;5072405;28;20048;-60
2023/07/30 04:47:15;;;;;;;12.77;6.60;;;;;;;28.49;73.88;99477.78;5061880;28;20370;-58
2023/07/30 04:49:47;;;;;;;17.07;6.43;;;;;;;28.45;74.74;99471.03;5062332;28;20048;-59
2023/07/30 04:52:19;;;;;;;11.67;7.33;;;;;;;28.43;74.90;99467.63;5072401;28;20059;-59
2023/07/30 04:54:52;;;;;;;18.73;6.97;;;;;;;28.37;75.21;99458.38;5060901;28;20048;-58
2023/07/30 04:57:28;;;;;;;12.03;6.97;;;;;;;28.46;76.06;99472.75;5071479;28;20047;-58
2023/07/30 05:00:02;;;;;;;13.10;7.07;;;;;;;28.52;76.28;99458.66;5061315;28;20371;-59
2023/07/30 05:02:35;;;;;;;17.67;9.20;;;;;;;28.51;75.56;99449.75;5071939;28;20393;-57
2023/07/30 05:05:09;;;;;;;25.63;16.70;;;;;;;28.52;76.10;99434.47;5061142;28;20070;-59
2023/07/30 05:07:42;;;;;;;18.80;11.33;;;;;;;28.53;76.02;99436.16;5071632;28;20047;-58
2023/07/30 05:10:16;;;;;;;17.37;10.07;;;;;;;28.56;75.74;99435.84;5059750;28;20078;-59
2023/07/30 05:12:52;;;;;;;12.77;8.03;;;;;;;28.63;75.29;99426.13;5061298;28;20044;-60
2023/07/30 05:15:25;;;;;;;15.87;7.47;;;;;;;28.74;75.44;99417.75;5071400;28;20055;-60
2023/07/30 05:17:57;;;;;;;13.40;6.50;;;;;;;28.91;75.20;99423.22;5060133;28;20036;-59
2023/07/30 05:20:33;;;;;;;12.17;6.70;;;;;;;28.98;73.64;99424.22;5071125;28;20581;-58
2023/07/30 05:23:06;;;;;;;13.50;8.47;;;;;;;29.02;73.29;99420.19;5061438;28;20105;-58
2023/07/30 05:25:39;;;;;;;13.53;7.10;;;;;;;29.04;72.85;99423.56;5072517;28;20078;-58
2023/07/30 05:28:13;;;;;;;13.47;7.20;;;;;;;29.03;73.31;99421.88;5060624;28;20052;-59
2023/07/30 05:30:48;;;;;;;9.47;6.63;;;;;;;29.05;73.75;99425.25;5060598;28;20083;-59
2023/07/30 05:33:22;;;;;;;12.37;6.67;;;;;;;29.05;72.33;99419.88;5071576;28;20145;-59
2023/07/30 05:35:55;;;;;;;12.57;7.00;;;;;;;28.97;72.04;99423.38;5060315;28;20040;-59
2023/07/30 05:38:28;;;;;;;10.67;6.50;;;;;;;29.11;71.75;99413.88;5071227;28;20104;-58
2023/07/30 05:41:01;;;;;;;14.80;6.77;;;;;;;29.33;71.46;99416.91;5060438;28;20048;-58
2023/07/30 05:43:36;;;;;;;10.10;6.90;;;;;;;29.58;70.78;99418.63;5070804;28;21044;-60
2023/07/30 05:46:09;;;;;;;12.33;6.03;;;;;;;29.76;69.90;99413.09;5061259;28;20067;-58
2023/07/30 05:48:41;;;;;;;14.70;6.67;;;;;;;29.76;68.50;99409.56;5072172;28;20055;-57
2023/07/30 05:51:14;;;;;;;13.53;6.53;;;;;;;29.75;68.72;99405.19;5059212;28;20040;-59
2023/07/30 05:53:50;;;;;;;11.73;6.20;;;;;;;29.61;67.28;99399.44;5058948;28;20048;-60
2023/07/30 05:56:24;;;;;;;13.47;7.30;;;;;;;29.61;68.55;99404.81;5070167;28;20460;-59
2023/07/30 05:58:59;;;;;;;12.83;6.80;;;;;;;29.71;68.39;99393.09;5060394;28;20056;-58
2023/07/30 06:01:32;;;;;;;21.80;8.07;;;;;;;29.76;68.17;99390.72;5070995;28;20062;-59
2023/07/30 06:04:12;;;;;;;12.23;6.10;;;;;;;29.61;66.79;99364.44;5061062;28;20102;-59
2023/07/30 06:06:45;;;;;;;9.93;6.68;;;;;;;29.72;67.33;99386.69;5068853;28;20055;-59
2023/07/30 06:09:17;;;;;;;10.57;7.00;;;;;;;29.62;67.76;99395.72;5070530;28;20427;-59
2023/07/30 06:11:51;;;;;;;12.87;7.17;;;;;;;29.61;68.87;99385.16;5059930;28;20062;-60
2023/07/30 06:14:25;;;;;;;15.03;7.47;;;;;;;29.65;69.00;99384.69;5072802;28;20058;-60
2023/07/30 06:17:00;;;;;;;15.90;7.90;;;;;;;29.62;68.67;99379.56;5063539;28;20420;-60
2023/07/30 06:19:34;;;;;;;11.53;7.70;;;;;;;29.59;69.50;99374.53;5094183;28;20391;-59
2023/07/30 06:22:08;;;;;;;14.97;7.60;;;;;;;29.64;68.97;99366.78;5093746;28;20052;-60
2023/07/30 06:24:41;;;;;;;14.67;7.17;;;;;;;29.70;68.88;99368.00;5070074;28;20107;-58
2023/07/30 06:27:13;;;;;;;18.87;7.43;;;;;;;29.69;68.03;99368.19;5059633;28;20481;-58
2023/07/30 06:29:47;;;;;;;13.63;7.73;;;;;;;29.65;68.92;99373.00;5064645;28;20062;-58
2023/07/30 06:32:21;;;;;;;15.23;7.57;;;;;;;29.57;68.92;99349.63;5069433;28;20101;-60
2023/07/30 06:34:56;;;;;;;17.30;8.03;;;;;;;29.81;69.39;99364.13;5061029;28;20051;-59
2023/07/30 06:37:30;;;;;;;16.03;8.03;;;;;;;29.92;67.77;99358.38;5068033;28;20043;-60
2023/07/30 06:40:04;;;;;;;13.10;7.77;;;;;;;29.99;67.96;99364.75;5058825;28;20051;-59
2023/07/30 06:42:38;;;;;;;20.60;8.57;;;;;;;30.01;67.87;99357.34;5069822;28;20039;-60
2023/07/30 06:45:13;;;;;;;11.70;7.23;;;;;;;30.10;66.57;99366.22;5069640;28;20055;-59
2023/07/30 06:47:45;;;;;;;16.13;8.40;;;;;;;29.97;66.12;99356.00;5066879;28;20081;-58
2023/07/30 06:50:19;;;;;;;13.63;7.97;;;;;;;29.86;67.00;99342.91;5070119;28;20106;-59
2023/07/30 06:52:52;;;;;;;14.37;8.00;;;;;;;29.75;66.78;99345.94;5060933;28;20055;-59
2023/07/30 06:55:27;;;;;;;15.97;8.07;;;;;;;29.69;67.80;99352.03;5070507;28;20147;-59
2023/07/30 06:58:00;;;;;;;16.60;8.30;;;;;;;29.62;68.46;99349.97;5058519;28;20529;-59
2023/07/30 07:00:38;;;;;;;20.07;8.77;;;;;;;29.57;67.89;99336.19;5069218;28;20138;-59
2023/07/30 07:03:15;;;;;;;13.33;7.60;;;;;;;29.57;68.25;99333.50;5058694;28;20059;-59
2023/07/30 07:06:00;;;;;;;13.63;8.20;;;;;;;29.66;67.84;99335.19;5060483;28;20048;-59
2023/07/30 07:08:32;;;;;;;15.00;8.07;;;;;;;29.62;68.00;99336.50;5068622;28;20048;-60
2023/07/30 07:11:07;;;;;;;38.60;22.13;;;;;;;29.49;67.84;99340.75;5059270;28;20054;-60
2023/07/30 07:13:41;;;;;;;48.80;27.47;;;;;;;29.26;68.25;99313.69;5071058;28;20142;-59
2023/07/30 07:16:18;;;;;;;25.53;16.00;;;;;;;29.34;67.97;99340.59;5059460;28;20109;-60
2023/07/30 07:18:52;;;;;;;42.23;23.87;;;;;;;29.19;67.88;99340.41;5059713;28;20052;-60
2023/07/30 07:21:30;;;;;;;18.80;13.67;;;;;;;29.14;69.14;99348.97;5070901;28;20059;-59
2023/07/30 07:24:04;;;;;;;17.17;8.68;;;;;;;29.16;69.87;99341.59;5058270;28;20036;-59
2023/07/30 07:26:37;;;;;;;18.20;8.63;;;;;;;29.14;69.49;99337.38;5069407;28;20126;-59
2023/07/30 07:29:11;;;;;;;19.60;10.33;;;;;;;29.08;69.81;99333.53;5060611;28;20055;-59
2023/07/30 07:31:47;;;;;;;17.13;9.27;;;;;;;28.98;69.85;99324.72;5075954;28;20047;-60
2023/07/30 07:34:22;;;;;;;22.07;11.00;;;;;;;29.09;70.75;99335.19;5088137;28;20097;-60
2023/07/30 07:36:55;;;;;;;16.87;9.80;;;;;;;29.12;69.85;99334.00;5065999;28;20401;-60
2023/07/30 07:39:28;;;;;;;24.60;10.90;;;;;;;29.09;69.80;99329.81;5077223;28;20126;-60
2023/07/30 07:42:02;;;;;;;61.27;43.23;;;;;;;29.08;69.63;99333.53;5062451;28;20040;-60
2023/07/30 07:44:35;;;;;;;65.40;41.63;;;;;;;29.05;69.72;99331.09;5088805;28;20097;-60
2023/07/30 07:47:10;;;;;;;54.40;37.40;;;;;;;29.07;70.05;99326.44;5098336;28;20044;-59
2023/07/30 07:49:43;;;;;;;39.03;25.83;;;;;;;29.07;69.75;99331.81;5083973;28;20044;-59
2023/07/30 07:52:17;;;;;;;34.00;18.83;;;;;;;29.02;70.17;99328.75;5067900;28;20470;-59
2023/07/30 07:54:55;;;;;;;27.67;20.40;;;;;;;29.00;69.72;99342.34;5069714;28;20046;-60
2023/07/30 07:57:29;;;;;;;38.87;24.80;;;;;;;28.99;69.92;99334.47;5106727;28;20043;-60
2023/07/30 08:00:05;;;;;;;27.23;18.37;;;;;;;28.93;69.90;99337.81;5070488;28;20689;-59
2023/07/30 08:02:40;;;;;;;32.60;17.97;;;;;;;28.91;69.90;99331.78;5075417;28;20123;-59
2023/07/30 08:05:13;;;;;;;19.13;8.83;;;;;;;28.89;69.95;99328.41;5063812;28;20036;-60
2023/07/30 08:07:48;;;;;;;18.73;8.80;;;;;;;28.89;70.67;99328.41;5065284;28;20047;-60
2023/07/30 08:10:22;;;;;;;20.97;14.57;;;;;;;28.90;71.12;99330.09;5072494;28;20043;-60
2023/07/30 08:12:54;;;;;;;17.27;9.93;;;;;;;28.94;71.05;99336.81;5064810;28;20066;-60
2023/07/30 08:15:27;;;;;;;17.57;8.37;;;;;;;28.65;70.95;99327.34;5071173;28;20168;-60
2023/07/30 08:18:07;;;;;;;21.00;8.57;;;;;;;28.33;71.84;99334.28;5060866;28;20146;-60
2023/07/30 08:20:40;;;;;;;21.50;9.23;;;;;;;28.07;73.18;99330.81;5073023;28;20433;-58
2023/07/30 08:23:13;;;;;;;17.40;8.33;;;;;;;27.80;73.90;99332.63;5062746;28;20074;-58
2023/07/30 08:25:46;;;;;;;21.43;9.13;;;;;;;27.58;74.56;99339.34;5066461;28;20044;-58
2023/07/30 08:28:22;;;;;;;23.77;8.70;;;;;;;27.45;75.54;99328.19;5072356;28;20047;-58
2023/07/30 08:30:54;;;;;;;26.27;9.30;;;;;;;27.34;76.47;99334.66;5063784;28;20982;-58
2023/07/30 08:33:29;;;;;;;20.23;8.63;;;;;;;27.24;77.57;99342.78;5071899;28;20059;-59
2023/07/30 08:36:03;;;;;;;20.23;8.53;;;;;;;27.22;78.55;99338.59;5061617;28;20048;-60
2023/07/30 08:38:35;;;;;;;23.70;8.67;;;;;;;27.24;78.83;99337.44;5072527;28;20040;-60
2023/07/30 08:41:08;;;;;;;33.73;9.30;;;;;;;27.37;78.31;99337.03;5061504;28;20048;-60
2023/07/30 08:43:42;;;;;;;24.47;9.70;;;;;;;27.48;78.11;99334.09;5073057;28;20044;-58
2023/07/30 08:46:15;;;;;;;24.60;9.20;;;;;;;27.64;77.43;99337.91;5064216;28;20039;-60
2023/07/30 08:48:51;;;;;;;16.43;8.77;;;;;;;27.69;77.50;99335.59;5059619;28;20130;-59
2023/07/30 08:51:25;;;;;;;24.67;9.63;;;;;;;27.70;77.14;99337.25;5072089;28;20048;-57
2023/07/30 08:54:02;;;;;;;26.50;9.63;;;;;;;27.72;76.59;99335.25;5061356;28;20101;-59
2023/07/30 08:56:34;;;;;;;27.17;9.20;;;;;;;27.63;76.87;99309.38;5070267;28;20135;-59
2023/07/30 08:59:08;;;;;;;19.43;9.63;;;;;;;27.66;77.14;99319.81;5062970;28;20493;-59
2023/07/30 09:01:41;;;;;;;23.47;10.00;;;;;;;27.64;76.75;99332.53;5072168;28;20462;-58
2023/07/30 09:04:19;;;;;;;22.53;10.27;;;;;;;27.51;76.59;99323.06;5060087;28;20075;-58
2023/07/30 09:07:01;;;;;;;24.53;9.60;;;;;;;27.31;76.55;99332.31;5060507;28;20607;-59
2023/07/30 09:09:32;;;;;;;21.33;9.80;;;;;;;26.98;77.27;99337.31;5070532;28;20046;-58
2023/07/30 09:12:15;;;;;;;23.47;10.13;;;;;;;26.73;78.46;99338.06;5060602;28;20494;-59
2023/07/30 09:14:55;;;;;;;19.97;10.17;;;;;;;26.49;79.32;99315.34;5060075;28;20143;-59
2023/07/30 09:17:26;;;;;;;23.50;11.40;;;;;;;26.67;79.77;99340.34;5072239;28;20075;-59
2023/07/30 09:20:04;;;;;;;23.33;10.47;;;;;;;26.62;80.08;99341.81;5061600;28;20360;-61
2023/07/30 09:22:40;;;;;;;23.95;11.40;;;;;;;26.60;80.39;99336.59;5070532;28;20052;-59
2023/07/30 09:25:15;;;;;;;24.37;11.47;;;;;;;26.53;80.73;99322.09;5060499;28;20367;-59
2023/07/30 09:27:50;;;;;;;22.77;11.00;;;;;;;26.45;81.09;99330.03;5061497;28;20436;-59
2023/07/30 09:30:28;;;;;;;26.87;11.07;;;;;;;26.23;81.70;99337.50;5071264;28;20059;-59
2023/07/30 09:33:01;;;;;;;29.23;11.87;;;;;;;25.61;83.02;99288.09;5061637;28;20040;-60
2023/07/30 09:35:36;;;;;;;26.03;11.80;;;;;;;25.81;83.82;99337.06;5069686;28;20044;-59
2023/07/30 09:38:49;;;;;;;20.38;11.57;;;;;;;25.62;84.92;99332.59;5060894;28;20051;-58
2023/07/30 09:41:23;;;;;;;28.87;11.40;;;;;;;25.43;86.32;99337.97;5060431;28;20078;-61
2023/07/30 09:44:00;;;;;;;27.70;10.97;;;;;;;25.29;87.17;99337.41;5059974;28;20179;-60
2023/07/30 09:46:32;;;;;;;23.30;11.57;;;;;;;25.15;88.09;99337.81;5070477;28;20414;-58
2023/07/30 09:49:07;;;;;;;24.87;11.40;;;;;;;25.06;88.97;99341.31;5060204;28;21078;-58
2023/07/30 09:51:47;;;;;;;31.40;11.60;;;;;;;25.03;89.46;99349.63;5070914;28;20040;-58
2023/07/30 09:54:20;;;;;;;29.13;11.13;;;;;;;24.93;89.83;99337.09;5060500;28;20075;-58
2023/07/30 09:56:52;;;;;;;25.90;11.23;;;;;;;24.85;90.62;99344.97;5059237;28;20147;-57
2023/07/30 09:59:28;;;;;;;23.83;10.83;;;;;;;24.74;91.21;99347.78;5070536;28;20051;-59
2023/07/30 10:02:00;;;;;;;25.93;11.63;;;;;;;24.50;91.70;99308.06;5060369;28;20146;-59
2023/07/30 10:04:35;;;;;;;21.20;10.33;;;;;;;24.66;92.23;99345.78;5071940;28;20071;-59
2023/07/30 10:07:14;;;;;;;24.97;10.90;;;;;;;24.63;92.64;99353.22;5059489;28;20417;-60
2023/07/30 10:09:50;;;;;;;21.67;9.70;;;;;;;24.58;92.92;99350.94;5062036;28;20519;-59
2023/07/30 10:12:26;;;;;;;19.43;9.30;;;;;;;24.52;93.32;99360.38;5069749;28;20064;-59
2023/07/30 10:14:58;;;;;;;20.83;9.67;;;;;;;24.19;93.61;99309.91;5059881;28;20055;-58
2023/07/30 10:17:30;;;;;;;22.83;8.87;;;;;;;24.41;93.99;99349.78;5070531;28;20051;-59
2023/07/30 10:20:22;;;;;;;20.37;9.70;;;;;;;24.40;93.85;99353.41;5061619;28;20052;-58
2023/07/30 10:22:59;;;;;;;20.10;8.73;;;;;;;24.36;93.74;99351.97;5059644;28;20416;-60
2023/07/30 10:25:44;;;;;;;18.13;9.70;;;;;;;24.25;94.00;99346.75;5069542;28;20082;-59
2023/07/30 10:28:33;;;;;;;19.57;8.97;;;;;;;24.17;93.87;99341.25;5058723;28;20075;-58
2023/07/30 10:31:09;;;;;;;16.10;8.43;;;;;;;24.24;93.91;99355.75;5057859;28;20065;-59
2023/07/30 10:33:48;;;;;;;17.43;9.13;;;;;;;24.19;93.97;99364.16;5070133;28;20116;-58
2023/07/30 10:36:20;;;;;;;17.83;8.80;;;;;;;24.08;93.96;99351.72;5069281;28;20131;-59
2023/07/30 10:38:54;;;;;;;18.13;9.27;;;;;;;24.03;94.29;99345.94;5058885;28;20079;-59
2023/07/30 10:41:27;;;;;;;15.83;9.10;;;;;;;24.13;94.30;99363.84;5070121;28;20105;-60
2023/07/30 10:44:01;;;;;;;16.30;8.53;;;;;;;24.02;94.37;99346.09;5059668;28;20048;-60
2023/07/30 10:46:34;;;;;;;16.57;9.23;;;;;;;24.05;94.63;99360.00;5069212;28;20048;-59
2023/07/30 10:49:11;;;;;;;19.63;8.80;;;;;;;23.98;94.82;99374.84;5058012;28;20051;-59
2023/07/30 10:51:43;;;;;;;17.00;8.40;;;;;;;23.92;95.19;99378.06;5069642;28;20118;-60
2023/07/30 10:54:17;;;;;;;19.43;9.30;;;;;;;23.92;94.94;99378.06;5058817;28;20362;-60
2023/07/30 10:56:49;;;;;;;21.20;9.83;;;;;;;23.79;94.64;99362.28;5060308;28;20056;-59
2023/07/30 10:59:22;;;;;;;17.60;9.50;;;;;;;23.85;94.92;99360.91;5081884;28;20075;-59
2023/07/30 11:01:56;;;;;;;19.93;9.27;;;;;;;23.60;94.84;99336.28;5059975;28;20054;-60
2023/07/30 11:04:29;;;;;;;15.40;9.43;;;;;;;23.82;94.57;99366.50;5068988;28;20044;-59
2023/07/30 11:07:03;;;;;;;15.13;8.17;;;;;;;23.85;93.65;99360.91;5059826;28;20056;-60
2023/07/30 11:09:36;;;;;;;16.00;7.90;;;;;;;23.91;92.95;99357.69;5072434;28;20051;-60
2023/07/30 11:12:14;;;;;;;15.50;8.50;;;;;;;23.93;92.67;99368.25;5062836;28;20135;-59
2023/07/30 11:14:46;;;;;;;11.97;8.17;;;;;;;23.94;92.16;99360.13;5065256;28;20035;-61
2023/07/30 11:17:24;;;;;;;13.87;7.90;;;;;;;23.89;92.14;99357.00;5075456;28;20160;-62
2023/07/30 11:19:55;;;;;;;;;;;;;;;23.84;92.17;99354.72;5064406;28;20209;-61
2023/07/30 11:22:32;;;;;;;15.63;7.60;;;;;;;23.81;92.18;99359.47;5075473;28;20374;-60
2023/07/30 11:25:20;;;;;;;13.77;8.03;;;;;;;23.76;92.36;99353.66;5063350;28;20510;-61
2023/07/30 11:27:52;;;;;;;;;;;;;;;23.73;92.48;99356.59;5063544;28;20048;-60
2023/07/30 11:30:25;;;;;;;16.93;7.90;;;;;;;23.66;92.92;99351.78;5073985;28;20071;-61
2023/07/30 11:32:58;;;;;;;11.97;7.60;;;;;;;23.63;93.14;99354.69;5063704;28;20410;-61
2023/07/30 11:35:31;;;;;;;16.63;8.47;;;;;;;23.59;93.21;99350.63;5072973;28;20048;-59
2023/07/30 11:38:03;;;;;;;17.83;8.13;;;;;;;23.55;93.33;99354.50;5063195;28;20082;-60
2023/07/30 11:40:38;;;;;;;15.13;8.10;;;;;;;23.56;93.62;99345.50;5074438;28;20062;-60
2023/07/30 11:43:10;;;;;;;13.60;7.70;;;;;;;23.48;93.57;99348.84;5062695;28;20138;-60
2023/07/30 11:45:42;;;;;;;14.60;8.57;;;;;;;23.48;93.94;99348.00;5074622;28;20047;-60
2023/07/30 11:48:16;;;;;;;17.40;8.20;;;;;;;23.44;94.02;99351.91;5063170;28;20154;-61
2023/07/30 11:50:51;;;;;;;18.20;9.00;;;;;;;23.33;94.30;99343.97;5064773;28;20071;-60
2023/07/30 11:53:23;;;;;;;19.43;10.13;;;;;;;23.42;94.32;99349.38;5075006;28;20052;-61
2023/07/30 11:55:56;;;;;;;18.23;8.90;;;;;;;23.38;94.62;99358.59;5062810;28;20055;-62